Stations météo

réclame
Mon MeteoGroup
Salamanca/Matacan, Espagne (8202): Température de l'air & dewpoint: 17.07.2018 07:00:00 - 23.07.2018 07:00:00 (CEST)Salamanca/Matacan, Espagne (8202): Vitesse du vent: 17.07.2018 07:00:00 - 23.07.2018 07:00:00 (CEST)Salamanca/Matacan, Espagne (8202): Direction du vent: 17.07.2018 07:00:00 - 23.07.2018 07:00:00 (CEST)Salamanca/Matacan, Espagne (8202): visibility: 17.07.2018 07:00:00 - 23.07.2018 07:00:00 (CEST)
Date & Time tt [°C] td [°C] ff [km/h] ff [knt] dd vv [km]
23.07.2018 07:00:00 13,2 10,4 9 5 SSE 10
23.07.2018 06:00:00 14,9 11,3 11 6 E 10
23.07.2018 05:00:00 15,6 11,2 8 4 E 10
23.07.2018 04:00:00 16,7 11,0 9 5 ENE 10
23.07.2018 03:00:00 16,3 10,6 9 5 E 10
23.07.2018 02:00:00 17,2 10,3 9 5 E 10
23.07.2018 01:00:00 17,6 9,5 13 7 E 10
23.07.2018 00:00:00 17,6 10,6 0 0 N 10
22.07.2018 23:00:00 19,9 10,2 2 1 - 10
22.07.2018 22:00:00 22,1 9,6 9 5 NE 10
22.07.2018 21:00:00 26,7 10,8 8 4 NNE 10
22.07.2018 20:00:00 28,7 10,4 9 5 N 10
22.07.2018 19:00:00 29,7 8,3 5 3 N 10
22.07.2018 18:00:00 29,2 8,0 4 2 - 10
22.07.2018 17:00:00 28,8 8,1 5 3 - 10
22.07.2018 16:00:00 28,2 9,0 5 3 - 10
22.07.2018 15:00:00 26,9 10,9 4 2 - 10
22.07.2018 14:00:00 26,6 10,4 11 6 E 10
22.07.2018 13:00:00 25,4 10,9 15 8 ENE 10
22.07.2018 12:00:00 23,4 10,8 16 9 ENE 10
22.07.2018 11:00:00 21,5 11,7 13 7 ENE 10
22.07.2018 10:00:00 18,9 11,9 16 9 ENE 10
22.07.2018 09:00:00 16,4 11,8 11 6 ENE 10
22.07.2018 08:00:00 13,5 10,7 2 1 - 10
22.07.2018 07:00:00 11,7 9,8 5 3 ENE 6
22.07.2018 06:00:00 12,2 10,1 0 0 N 7
22.07.2018 05:00:00 13,0 9,6 4 2 NE 7
22.07.2018 04:00:00 14,4 10,2 11 6 E 7
22.07.2018 03:00:00 16,1 10,0 13 7 ENE 6
22.07.2018 02:00:00 16,3 10,5 9 5 NE 6
22.07.2018 01:00:00 17,9 11,5 15 8 E 5
22.07.2018 00:00:00 19,1 11,4 8 4 ENE 6
21.07.2018 23:00:00 19,5 11,5 9 5 E 6
21.07.2018 22:00:00 20,6 11,2 11 6 E 6
21.07.2018 21:00:00 21,5 10,3 11 6 NE 10
21.07.2018 20:00:00 22,4 10,8 13 7 NE 10
21.07.2018 19:00:00 23,8 11,6 15 8 NNE 10
21.07.2018 18:00:00 25,7 11,5 15 8 ENE 10
21.07.2018 17:00:00 27,0 11,3 8 4 ENE 20
21.07.2018 16:00:00 25,8 11,1 8 4 - 10
21.07.2018 15:00:00 26,0 11,0 4 2 NE 10
21.07.2018 14:00:00 24,3 11,4 4 2 - 10
21.07.2018 13:00:00 23,5 11,2 5 3 - 10
21.07.2018 12:00:00 21,5 11,5 11 6 ENE 10
21.07.2018 11:00:00 19,4 12,5 8 4 E 10
21.07.2018 10:00:00 17,1 12,5 11 6 ENE 10
21.07.2018 09:00:00 15,0 11,9 11 6 ENE 10
21.07.2018 08:00:00 12,7 11,3 8 4 NE 10
21.07.2018 07:00:00 11,4 10,1 8 4 ENE 5
21.07.2018 06:00:00 12,3 10,9 5 3 ENE 5
21.07.2018 05:00:00 12,9 11,3 9 5 E 4,9
21.07.2018 04:00:00 13,4 11,6 9 5 NE 6
21.07.2018 03:00:00 13,5 11,5 0 0 N 5
21.07.2018 02:00:00 14,1 12,1 9 5 NNE 5
21.07.2018 01:00:00 15,0 11,7 0 0 N 6
21.07.2018 00:00:00 16,3 11,9 5 3 SSE 5
20.07.2018 23:00:00 18,7 11,7 13 7 ENE 6
20.07.2018 22:00:00 18,4 12,6 8 4 ENE 6
20.07.2018 21:00:00 21,6 12,3 11 6 ENE 10
20.07.2018 20:00:00 23,0 12,2 21 11 NE 10
20.07.2018 19:00:00 24,4 10,1 18 10 N 10
20.07.2018 18:00:00 24,2 12,3 28 15 N 10
20.07.2018 17:00:00 27,8 10,1 9 5 W 10
20.07.2018 16:00:00 26,4 11,0 11 6 W 10
20.07.2018 15:00:00 24,9 14,9 9 5 W 10
20.07.2018 14:00:00 22,7 14,1 9 5 W 10
20.07.2018 13:00:00 20,4 14,5 8 4 NNW 10
20.07.2018 12:00:00 19,3 14,0 0 0 N 10
20.07.2018 11:00:00 18,4 14,1 5 3 NE 10
20.07.2018 10:00:00 17,6 14,2 4 2 - 10
20.07.2018 09:00:00 16,5 14,5 5 3 NNW 8
20.07.2018 08:00:00 15,3 14,0 4 2 NW 6
20.07.2018 07:00:00 12,7 11,6 5 3 WNW 5
20.07.2018 06:00:00 12,9 11,3 2 1 WSW 4,6
20.07.2018 05:00:00 12,9 11,4 4 2 W 4,4
20.07.2018 04:00:00 13,8 11,8 5 3 WSW 4,8
20.07.2018 03:00:00 13,8 11,6 9 5 W 5
20.07.2018 02:00:00 14,3 11,3 9 5 W 4,9
20.07.2018 01:00:00 15,1 10,7 8 4 W 5
20.07.2018 00:00:00 16,3 8,8 0 0 N 6
19.07.2018 23:00:00 16,8 8,5 9 5 W 6
19.07.2018 22:00:00 19,6 9,2 11 6 WNW 7
19.07.2018 21:00:00 24,2 9,0 13 7 WNW 10
19.07.2018 20:00:00 26,8 8,9 15 8 WNW 10
19.07.2018 19:00:00 28,4 9,2 15 8 WNW 10
19.07.2018 18:00:00 29,3 10,2 18 10 WNW 10
19.07.2018 17:00:00 29,3 6,8 13 7 - 10
19.07.2018 16:00:00 29,6 8,3 15 8 W 10
19.07.2018 15:00:00 28,5 2,5 18 10 W 10
19.07.2018 14:00:00 27,9 -1,6 22 12 WSW 15
19.07.2018 13:00:00 27,0 2,5 22 12 WSW 10
19.07.2018 12:00:00 25,6 3,1 21 11 WSW 10
19.07.2018 11:00:00 21,8 12,2 9 5 WNW 10
19.07.2018 10:00:00 18,3 14,3 5 3 NNW 10
19.07.2018 09:00:00 16,9 12,8 0 0 N 8
19.07.2018 08:00:00 12,7 10,8 4 2 S 8
19.07.2018 07:00:00 11,0 9,3 5 3 SSW 8
19.07.2018 06:00:00 11,6 9,5 5 3 S -
19.07.2018 05:00:00 12,7 10,4 5 3 SW -
19.07.2018 04:00:00 13,8 11,3 8 4 SW -
19.07.2018 03:00:00 13,8 10,0 4 2 S -
19.07.2018 02:00:00 14,5 9,1 2 1 WNW -
19.07.2018 01:00:00 15,8 7,1 8 4 SW -
19.07.2018 00:00:00 17,3 7,9 4 2 WNW -
18.07.2018 23:00:00 18,8 8,1 8 4 W 10
18.07.2018 22:00:00 22,3 5,2 13 7 WSW 10
18.07.2018 21:00:00 27,0 5,7 13 7 WSW 10
18.07.2018 20:00:00 29,4 5,0 15 8 WSW 10
18.07.2018 19:00:00 30,2 6,0 18 10 SW 10
18.07.2018 18:00:00 30,6 3,6 15 8 W 10
18.07.2018 17:00:00 30,5 6,7 16 9 W 10
18.07.2018 16:00:00 30,2 6,6 22 12 WSW 10
18.07.2018 15:00:00 30,0 3,1 22 12 SW 10
18.07.2018 14:00:00 29,1 6,9 22 12 W 10
18.07.2018 13:00:00 29,0 7,5 28 15 WSW 10
18.07.2018 12:00:00 28,2 7,5 26 14 SW 10
18.07.2018 11:00:00 24,6 15,7 2 1 - 10
18.07.2018 10:00:00 21,1 15,3 8 4 WNW 10
18.07.2018 09:00:00 18,4 13,8 2 1 - 10
18.07.2018 08:00:00 14,1 12,1 0 0 N 10
18.07.2018 07:00:00 13,0 11,1 8 4 WSW 10
18.07.2018 06:00:00 13,1 11,3 5 3 NNW -
18.07.2018 05:00:00 13,8 11,0 9 5 WSW -
18.07.2018 04:00:00 14,2 11,9 4 2 NE -
18.07.2018 03:00:00 15,1 12,1 4 2 ESE -
18.07.2018 02:00:00 16,3 11,4 2 1 S -
18.07.2018 01:00:00 16,8 13,7 0 0 N -
18.07.2018 00:00:00 18,8 12,7 0 0 N -
17.07.2018 23:00:00 21,0 12,7 4 2 NE -
17.07.2018 22:00:00 24,1 13,9 8 4 W -
17.07.2018 21:00:00 30,0 13,4 4 2 W 10
17.07.2018 20:00:00 30,7 14,3 4 2 - 10
17.07.2018 19:00:00 31,5 9,0 8 4 E 10
17.07.2018 18:00:00 31,5 8,6 9 5 ENE 10
17.07.2018 17:00:00 30,5 10,6 5 3 - 10
17.07.2018 16:00:00 29,7 9,6 11 6 WNW 10
17.07.2018 15:00:00 29,1 10,7 8 4 NNW 10
17.07.2018 14:00:00 27,9 9,9 8 4 - 10
17.07.2018 13:00:00 26,7 10,1 5 3 N 10
17.07.2018 12:00:00 25,3 12,7 5 3 E 10
17.07.2018 11:00:00 22,0 13,1 4 2 - 10
17.07.2018 10:00:00 18,6 12,6 4 2 - 10
17.07.2018 09:00:00 15,6 11,2 0 0 N 10
17.07.2018 08:00:00 13,2 10,6 2 1 - 10
17.07.2018 07:00:00 12,0 9,0 2 1 S 10

tt = Température de l'air
td = dewpoint
ff = Vitesse du vent
dd = Direction du vent
vv = visibility

stations d'obs. à proximité